createdAt,value
2023-01-19T00:00:50.803Z,17.08
2023-01-19T00:03:17.932Z,20.08
2023-01-19T00:05:45.165Z,19.17
2023-01-19T00:08:14.998Z,16.02
2023-01-19T00:10:43.691Z,19.02
2023-01-19T00:13:10.435Z,16.98
2023-01-19T00:15:37.490Z,18.83
2023-01-19T00:18:04.066Z,16.98
2023-01-19T00:20:35.387Z,18.75
2023-01-19T00:23:03.348Z,15.98
2023-01-19T00:25:30.339Z,16.13
2023-01-19T00:27:57.263Z,15.35
2023-01-19T00:30:23.713Z,15.60
2023-01-19T00:32:50.273Z,15.75
2023-01-19T00:35:16.976Z,15.23
2023-01-19T00:37:46.211Z,16.55
2023-01-19T00:40:14.096Z,18.25
2023-01-19T00:42:41.079Z,15.00
2023-01-19T00:45:09.909Z,16.83
2023-01-19T00:47:36.726Z,18.13
2023-01-19T00:50:03.651Z,15.57
2023-01-19T00:52:30.431Z,15.50
2023-01-19T00:54:56.951Z,15.27
2023-01-19T00:57:23.710Z,16.40
2023-01-19T00:59:50.344Z,19.30
2023-01-19T01:02:17.262Z,15.45
2023-01-19T01:04:43.926Z,17.65
2023-01-19T01:07:10.543Z,20.30
2023-01-19T01:09:37.339Z,15.68
2023-01-19T01:12:04.081Z,16.25
2023-01-19T01:14:32.760Z,14.40
2023-01-19T01:17:00.541Z,14.18
2023-01-19T01:19:27.178Z,18.13
2023-01-19T01:21:53.710Z,16.90
2023-01-19T01:24:20.957Z,18.75
2023-01-19T01:26:47.605Z,14.95
2023-01-19T01:29:14.167Z,23.70
2023-01-19T01:31:41.030Z,14.15
2023-01-19T01:34:08.220Z,19.65
2023-01-19T01:36:35.463Z,16.38
2023-01-19T01:39:02.320Z,15.95
2023-01-19T01:41:29.064Z,15.52
2023-01-19T01:43:58.843Z,18.98
2023-01-19T01:46:28.728Z,18.80
2023-01-19T01:49:06.955Z,18.08
2023-01-19T01:51:42.217Z,20.48
2023-01-19T01:54:12.848Z,15.77
2023-01-19T01:56:42.924Z,20.63
2023-01-19T01:59:17.989Z,19.58
2023-01-19T02:02:03.351Z,14.10
2023-01-19T02:04:31.203Z,19.70
2023-01-19T02:07:16.415Z,16.23
2023-01-19T02:10:01.640Z,18.95
2023-01-19T02:12:47.300Z,19.90
2023-01-19T02:15:20.143Z,17.65
2023-01-19T02:17:47.450Z,19.40
2023-01-19T02:20:14.601Z,21.38
2023-01-19T02:22:50.078Z,17.63
2023-01-19T02:25:19.042Z,19.90
2023-01-19T02:27:45.956Z,17.45
2023-01-19T02:30:13.664Z,17.17
2023-01-19T02:32:40.299Z,18.08
2023-01-19T02:35:07.222Z,15.90
2023-01-19T02:37:37.576Z,20.42
2023-01-19T02:40:06.981Z,21.58
2023-01-19T02:42:39.674Z,17.80
2023-01-19T02:45:09.473Z,18.48
2023-01-19T02:47:43.042Z,19.20
2023-01-19T02:50:28.739Z,16.40
2023-01-19T02:53:17.588Z,15.45
2023-01-19T02:55:53.764Z,15.05
2023-01-19T02:58:33.533Z,17.67
2023-01-19T03:01:32.595Z,14.93
2023-01-19T03:04:25.142Z,18.30
2023-01-19T03:07:00.711Z,17.15
2023-01-19T03:09:44.532Z,17.20
2023-01-19T03:12:26.916Z,18.63
2023-01-19T03:15:00.861Z,17.13
2023-01-19T03:17:31.024Z,17.88
2023-01-19T03:19:57.934Z,21.88
2023-01-19T03:22:29.066Z,16.20
2023-01-19T03:25:01.124Z,16.83
2023-01-19T03:27:31.223Z,17.55
2023-01-19T03:30:05.877Z,17.25
2023-01-19T03:32:39.828Z,19.63
2023-01-19T03:35:13.378Z,15.90
2023-01-19T03:37:43.509Z,19.08
2023-01-19T03:40:11.447Z,18.70
2023-01-19T03:42:39.662Z,17.58
2023-01-19T03:45:07.361Z,17.75
2023-01-19T03:47:35.283Z,20.58
2023-01-19T03:50:05.407Z,19.58
2023-01-19T03:52:33.779Z,17.30
2023-01-19T03:55:05.622Z,20.80
2023-01-19T03:57:32.377Z,20.17
2023-01-19T03:59:58.948Z,21.98
2023-01-19T04:02:25.442Z,21.08
2023-01-19T04:04:51.940Z,19.42
2023-01-19T04:07:18.856Z,22.13
2023-01-19T04:09:45.363Z,18.55
2023-01-19T04:12:12.265Z,17.77
2023-01-19T04:14:38.827Z,16.65
2023-01-19T04:17:05.421Z,15.80
2023-01-19T04:19:31.967Z,18.17
2023-01-19T04:21:58.573Z,20.70
2023-01-19T04:24:25.177Z,20.63
2023-01-19T04:26:53.476Z,21.98
2023-01-19T04:29:20.022Z,21.80
2023-01-19T04:31:46.540Z,21.40
2023-01-19T04:34:13.092Z,13.77
2023-01-19T04:36:39.646Z,21.08
2023-01-19T04:39:08.287Z,22.25
2023-01-19T04:41:34.905Z,20.50
2023-01-19T04:44:01.453Z,18.25
2023-01-19T04:46:28.236Z,13.00
2023-01-19T04:48:54.738Z,20.75
2023-01-19T04:51:21.234Z,16.63
2023-01-19T04:53:47.814Z,23.05
2023-01-19T04:56:14.370Z,19.98
2023-01-19T04:58:40.955Z,21.00
2023-01-19T05:01:09.639Z,24.50
2023-01-19T05:03:36.491Z,18.50
2023-01-19T05:06:03.326Z,24.83
2023-01-19T05:08:30.029Z,25.42
2023-01-19T05:10:57.540Z,16.17
2023-01-19T05:13:24.163Z,22.02
2023-01-19T05:15:50.736Z,19.92
2023-01-19T05:18:17.979Z,25.73
2023-01-19T05:20:44.564Z,23.50
2023-01-19T05:23:11.197Z,20.88
2023-01-19T05:25:37.830Z,22.17
2023-01-19T05:28:04.625Z,21.85
2023-01-19T05:30:31.329Z,22.08
2023-01-19T05:32:58.002Z,24.40
2023-01-19T05:35:35.397Z,26.23
2023-01-19T05:38:02.721Z,19.02
2023-01-19T05:40:29.404Z,20.58
2023-01-19T05:43:00.643Z,19.02
2023-01-19T05:45:28.292Z,13.85
2023-01-19T05:47:55.165Z,22.10
2023-01-19T05:50:21.736Z,20.90
2023-01-19T05:52:48.514Z,16.13
2023-01-19T05:55:32.267Z,17.52
2023-01-19T05:57:58.864Z,18.38
2023-01-19T06:00:27.493Z,21.02
2023-01-19T06:02:54.105Z,20.95
2023-01-19T06:05:20.747Z,16.42
2023-01-19T06:07:47.437Z,25.15
2023-01-19T06:10:13.974Z,20.98
2023-01-19T06:12:43.633Z,20.85
2023-01-19T06:15:10.599Z,22.63
2023-01-19T06:17:37.156Z,19.42
2023-01-19T06:20:05.347Z,20.75
2023-01-19T06:22:31.921Z,20.95
2023-01-19T06:24:58.445Z,18.02
2023-01-19T06:27:24.964Z,18.90
2023-01-19T06:29:51.539Z,21.98
2023-01-19T06:32:18.179Z,20.70
2023-01-19T06:34:44.877Z,24.33
2023-01-19T06:37:11.673Z,22.20
2023-01-19T06:39:40.956Z,23.15
2023-01-19T06:42:08.257Z,18.80
2023-01-19T06:44:34.852Z,18.85
2023-01-19T06:47:15.655Z,19.30
2023-01-19T06:49:42.848Z,18.92
2023-01-19T06:52:11.468Z,18.13
2023-01-19T06:54:38.232Z,18.15
2023-01-19T06:57:04.776Z,21.77
2023-01-19T06:59:31.738Z,13.75
2023-01-19T07:02:01.018Z,16.42
2023-01-19T07:04:47.403Z,19.23
2023-01-19T07:07:14.045Z,17.95
2023-01-19T07:09:40.594Z,18.75
2023-01-19T07:12:07.855Z,21.33
2023-01-19T07:14:35.550Z,18.42
2023-01-19T07:17:02.966Z,20.80
2023-01-19T07:19:29.707Z,18.20
2023-01-19T07:21:56.254Z,22.20
2023-01-19T07:24:23.717Z,20.08
2023-01-19T07:26:50.271Z,18.10
2023-01-19T07:29:16.867Z,21.45
2023-01-19T07:31:43.452Z,21.17
2023-01-19T07:34:12.387Z,20.65
2023-01-19T07:36:39.114Z,19.23
2023-01-19T07:39:08.509Z,18.10
2023-01-19T07:41:35.610Z,20.17
2023-01-19T07:44:02.212Z,18.90
2023-01-19T07:46:28.744Z,18.55
2023-01-19T07:48:55.595Z,22.50
2023-01-19T07:51:22.188Z,21.83
2023-01-19T07:53:52.153Z,20.35
2023-01-19T07:56:18.726Z,16.27
2023-01-19T07:58:45.305Z,18.30
2023-01-19T08:01:13.306Z,19.38
2023-01-19T08:03:39.948Z,19.85
2023-01-19T08:06:07.255Z,17.58
2023-01-19T08:08:34.165Z,20.70
2023-01-19T08:11:00.641Z,20.38
2023-01-19T08:13:27.278Z,21.83
2023-01-19T08:15:54.235Z,20.02
2023-01-19T08:18:21.106Z,17.73
2023-01-19T08:20:47.727Z,21.23
2023-01-19T08:23:14.340Z,17.00
2023-01-19T08:25:44.360Z,15.23
2023-01-19T08:28:13.995Z,17.70
2023-01-19T08:30:43.587Z,20.73
2023-01-19T08:33:11.764Z,15.27
2023-01-19T08:35:40.879Z,20.83
2023-01-19T08:38:08.720Z,15.50
2023-01-19T08:40:38.416Z,15.05
2023-01-19T08:43:07.769Z,16.35
2023-01-19T08:45:41.375Z,14.98
2023-01-19T08:48:08.049Z,16.42
2023-01-19T08:50:34.937Z,17.40
2023-01-19T08:53:03.667Z,16.20
2023-01-19T08:55:30.545Z,14.10
2023-01-19T08:57:59.999Z,12.52
2023-01-19T09:00:27.209Z,16.13
2023-01-19T09:02:54.914Z,78.35
2023-01-19T09:05:21.802Z,15.15
2023-01-19T09:07:48.523Z,11.70
2023-01-19T09:10:16.179Z,13.75
2023-01-19T09:12:44.842Z,18.90
2023-01-19T09:15:13.782Z,9.88
2023-01-19T09:17:43.710Z,12.55
2023-01-19T09:20:10.873Z,12.38
2023-01-19T09:22:38.489Z,11.32
2023-01-19T09:25:08.353Z,12.82
2023-01-19T09:27:35.715Z,12.88
2023-01-19T09:30:03.437Z,14.30
2023-01-19T09:32:30.066Z,13.15
2023-01-19T09:34:56.801Z,13.32
2023-01-19T09:37:23.373Z,13.52
2023-01-19T09:39:49.991Z,14.38
2023-01-19T09:42:44.555Z,13.05
2023-01-19T09:45:18.840Z,16.30
2023-01-19T09:47:48.608Z,13.82
2023-01-19T09:50:26.739Z,10.70
2023-01-19T09:53:03.075Z,12.82
2023-01-19T09:55:30.760Z,11.65
2023-01-19T09:57:57.275Z,10.27
2023-01-19T10:00:25.625Z,11.90
2023-01-19T10:02:58.904Z,14.57
2023-01-19T10:05:38.734Z,17.05
2023-01-19T10:08:20.542Z,13.23
2023-01-19T10:10:52.541Z,13.70
2023-01-19T10:13:28.877Z,10.20
2023-01-19T10:16:07.287Z,17.42
2023-01-19T10:18:51.883Z,15.65
2023-01-19T10:21:26.206Z,9.23
2023-01-19T10:24:00.876Z,9.63
2023-01-19T10:26:36.330Z,13.80
2023-01-19T10:29:10.897Z,15.10
2023-01-19T10:31:44.756Z,12.10
2023-01-19T10:34:20.974Z,13.35
2023-01-19T10:36:55.696Z,10.38
2023-01-19T10:39:22.569Z,11.82
2023-01-19T10:41:51.522Z,9.23
2023-01-19T10:44:26.620Z,14.43
2023-01-19T10:46:56.743Z,15.50
2023-01-19T10:49:36.163Z,16.15
2023-01-19T10:52:05.239Z,15.90
2023-01-19T10:54:33.903Z,17.35
2023-01-19T10:57:07.195Z,16.25
2023-01-19T10:59:44.228Z,15.68
2023-01-19T11:02:18.663Z,18.88
2023-01-19T11:04:50.182Z,15.25
2023-01-19T11:07:25.894Z,17.45
2023-01-19T11:10:17.707Z,15.52
2023-01-19T11:12:52.817Z,17.17
2023-01-19T11:15:41.683Z,15.85
2023-01-19T11:18:08.202Z,13.80
2023-01-19T11:20:53.656Z,16.30
2023-01-19T11:23:31.927Z,14.82
2023-01-19T11:26:01.520Z,15.75
2023-01-19T11:28:44.186Z,10.98
2023-01-19T11:31:11.642Z,14.07
2023-01-19T11:33:49.736Z,15.60
2023-01-19T11:36:21.175Z,17.17
2023-01-19T11:38:53.327Z,21.35
2023-01-19T11:41:22.522Z,13.68
2023-01-19T11:43:52.819Z,14.73
2023-01-19T11:46:20.763Z,16.80
2023-01-19T11:49:01.706Z,18.85
2023-01-19T11:51:34.328Z,17.60
2023-01-19T11:56:29.687Z,17.95
2023-01-19T11:58:56.449Z,16.02
2023-01-19T12:01:35.223Z,16.75
2023-01-19T12:04:14.321Z,15.43
2023-01-19T12:06:44.752Z,16.88
2023-01-19T12:09:13.425Z,15.13
2023-01-19T12:11:44.533Z,18.63
2023-01-19T12:14:21.484Z,18.90
2023-01-19T12:16:51.885Z,17.13
2023-01-19T12:19:25.091Z,19.40
2023-01-19T12:21:52.598Z,17.00
2023-01-19T12:24:42.332Z,20.65
2023-01-19T12:27:31.933Z,20.50
2023-01-19T12:29:58.761Z,17.65
2023-01-19T12:32:36.852Z,18.02
2023-01-19T12:35:03.530Z,20.65
2023-01-19T12:37:36.432Z,24.13
2023-01-19T12:40:21.705Z,20.25
2023-01-19T12:42:56.683Z,15.88
2023-01-19T12:45:28.554Z,23.35
2023-01-19T12:47:56.276Z,18.20
2023-01-19T12:50:25.868Z,24.00
2023-01-19T12:53:02.839Z,16.73
2023-01-19T12:55:37.577Z,17.80
2023-01-19T12:58:18.539Z,15.02
2023-01-19T13:00:48.206Z,19.75
2023-01-19T13:03:17.534Z,14.75
2023-01-19T13:05:44.052Z,20.73
2023-01-19T13:08:11.402Z,20.60
2023-01-19T13:11:00.034Z,17.10
2023-01-19T13:13:31.764Z,19.65
2023-01-19T13:16:28.008Z,17.17
2023-01-19T13:18:59.495Z,17.80
2023-01-19T13:21:35.258Z,14.93
2023-01-19T13:24:01.925Z,14.43
2023-01-19T13:26:32.612Z,11.88
2023-01-19T13:29:07.871Z,9.93
2023-01-19T13:31:36.604Z,11.57
2023-01-19T13:34:10.654Z,18.42
2023-01-19T13:36:41.315Z,11.60
2023-01-19T13:39:23.479Z,14.82
2023-01-19T13:41:54.157Z,12.88
2023-01-19T13:44:32.223Z,16.33
2023-01-19T13:46:59.850Z,18.02
2023-01-19T13:49:33.947Z,11.02
2023-01-19T13:52:13.765Z,18.67
2023-01-19T13:54:49.965Z,14.98
2023-01-19T13:57:45.331Z,46.25
2023-01-19T14:00:14.606Z,13.15
2023-01-19T14:02:52.509Z,17.95
2023-01-19T14:05:28.901Z,17.77
2023-01-19T14:08:13.476Z,19.00
2023-01-19T14:10:42.659Z,17.02
2023-01-19T14:13:25.182Z,17.38
2023-01-19T14:15:55.411Z,16.85
2023-01-19T14:18:22.023Z,15.55
2023-01-19T14:21:15.552Z,16.38
2023-01-19T14:23:47.191Z,15.75
2023-01-19T14:26:51.887Z,15.67
2023-01-19T14:29:21.390Z,10.75
2023-01-19T14:31:50.868Z,20.05
2023-01-19T14:34:28.831Z,17.67
2023-01-19T14:36:55.573Z,14.00
2023-01-19T14:39:24.728Z,12.63
2023-01-19T14:41:53.122Z,16.40
2023-01-19T14:44:35.975Z,17.63
2023-01-19T14:51:04.629Z,15.75
2023-01-19T14:53:37.400Z,18.70
2023-01-19T14:56:07.439Z,20.35
2023-01-19T14:58:35.417Z,21.05
2023-01-19T15:01:03.239Z,17.67
2023-01-19T15:03:43.482Z,25.92
2023-01-19T15:06:17.868Z,19.80
2023-01-19T15:08:45.524Z,20.40
2023-01-19T15:11:16.568Z,19.08
2023-01-19T15:13:44.656Z,22.85
2023-01-19T15:16:11.274Z,21.48
2023-01-19T15:18:38.805Z,23.02
2023-01-19T15:21:05.766Z,23.13
2023-01-19T15:23:33.077Z,19.85
2023-01-19T15:26:01.099Z,22.27
2023-01-19T15:28:27.898Z,25.48
2023-01-19T15:30:54.606Z,20.27
2023-01-19T15:33:24.630Z,21.77
2023-01-19T15:35:52.147Z,21.17
2023-01-19T15:38:18.845Z,21.23
2023-01-19T15:40:49.530Z,27.63
2023-01-19T15:43:17.696Z,20.00
2023-01-19T15:45:48.021Z,25.65
2023-01-19T15:48:14.760Z,19.58
2023-01-19T15:50:45.322Z,24.45
2023-01-19T15:53:18.006Z,22.38
2023-01-19T15:55:48.319Z,25.88
2023-01-19T15:58:15.021Z,24.38
2023-01-19T16:00:42.845Z,24.90
2023-01-19T16:03:10.543Z,25.65
2023-01-19T16:05:42.855Z,19.45
2023-01-19T16:08:11.420Z,24.15
2023-01-19T16:10:38.051Z,21.73
2023-01-19T16:13:04.640Z,39.60
2023-01-19T16:15:31.959Z,20.33
2023-01-19T16:17:58.643Z,21.30
2023-01-19T16:20:31.302Z,20.23
2023-01-19T16:23:13.893Z,21.02
2023-01-19T16:25:41.269Z,18.40
2023-01-19T16:28:08.321Z,21.17
2023-01-19T16:30:34.928Z,23.83
2023-01-19T16:33:01.585Z,15.88
2023-01-19T16:35:28.080Z,21.00
2023-01-19T16:37:54.599Z,26.52
2023-01-19T16:40:21.266Z,21.58
2023-01-19T16:42:47.853Z,19.50
2023-01-19T16:45:14.596Z,24.73
2023-01-19T16:47:41.331Z,22.85
2023-01-19T16:50:11.365Z,22.17
2023-01-19T16:52:38.437Z,24.63
2023-01-19T16:55:09.343Z,23.33
2023-01-19T16:57:36.923Z,35.33
2023-01-19T17:00:04.248Z,27.58
2023-01-19T17:02:30.831Z,24.77
2023-01-19T17:05:00.085Z,24.63
2023-01-19T17:07:28.005Z,26.02
2023-01-19T17:09:54.657Z,25.58
2023-01-19T17:12:21.305Z,25.70
2023-01-19T17:14:48.137Z,25.80
2023-01-19T17:17:15.011Z,23.17
2023-01-19T17:19:41.633Z,25.17
2023-01-19T17:22:08.337Z,24.02
2023-01-19T17:24:34.994Z,23.05
2023-01-19T17:27:01.571Z,25.50
2023-01-19T17:29:28.165Z,25.58
2023-01-19T17:31:54.681Z,21.50
2023-01-19T17:34:21.270Z,21.17
2023-01-19T17:36:50.601Z,23.75
2023-01-19T17:39:18.460Z,22.10
2023-01-19T17:41:45.007Z,28.67
2023-01-19T17:44:11.732Z,24.05
2023-01-19T17:46:38.672Z,25.17
2023-01-19T17:49:07.229Z,27.17
2023-01-19T17:51:34.605Z,27.92
2023-01-19T17:54:01.243Z,26.35
2023-01-19T17:56:30.226Z,28.15
2023-01-19T17:58:58.064Z,26.65
2023-01-19T18:01:27.076Z,30.77
2023-01-19T18:03:54.182Z,26.92
2023-01-19T18:06:21.593Z,28.52
2023-01-19T18:08:49.318Z,26.85
2023-01-19T18:11:17.993Z,27.65
2023-01-19T18:13:45.756Z,24.38
2023-01-19T18:16:28.440Z,30.38
2023-01-19T18:18:56.944Z,27.05
2023-01-19T18:21:24.951Z,32.35
2023-01-19T18:23:51.948Z,25.65
2023-01-19T18:26:20.526Z,27.23
2023-01-19T18:28:48.488Z,23.75
2023-01-19T18:31:18.845Z,30.60
2023-01-19T18:33:49.770Z,23.08
2023-01-19T18:36:16.983Z,23.98
2023-01-19T18:38:44.393Z,24.25
2023-01-19T18:41:13.055Z,22.05
2023-01-19T18:43:40.779Z,19.95
2023-01-19T18:46:07.753Z,21.98
2023-01-19T18:48:34.791Z,22.85
2023-01-19T18:51:06.492Z,27.75
2023-01-19T18:53:33.107Z,24.50
2023-01-19T18:56:02.024Z,21.92
2023-01-19T18:58:29.871Z,21.58
2023-01-19T19:00:56.641Z,22.23
2023-01-19T19:03:23.389Z,25.17
2023-01-19T19:05:50.253Z,97.38
2023-01-19T19:08:16.947Z,25.02
2023-01-19T19:10:43.804Z,24.70
2023-01-19T19:13:15.628Z,24.23
2023-01-19T19:15:44.118Z,23.10
2023-01-19T19:18:13.254Z,24.30
2023-01-19T19:20:39.950Z,24.10
2023-01-19T19:23:06.907Z,24.42
2023-01-19T19:25:33.536Z,21.90
2023-01-19T19:28:00.125Z,29.85
2023-01-19T19:30:26.707Z,26.30
2023-01-19T19:32:54.578Z,24.85
2023-01-19T19:35:21.486Z,26.02
2023-01-19T19:37:48.614Z,25.88
2023-01-19T19:40:15.693Z,33.22
2023-01-19T19:42:42.214Z,25.38
2023-01-19T19:45:09.339Z,31.40
2023-01-19T19:47:35.810Z,27.60
2023-01-19T19:50:02.616Z,24.83
2023-01-19T19:52:29.192Z,26.30
2023-01-19T19:54:55.920Z,28.25
2023-01-19T19:57:22.644Z,28.90
2023-01-19T19:59:49.183Z,33.05
2023-01-19T20:02:15.830Z,30.55
2023-01-19T20:04:43.017Z,28.52
2023-01-19T20:07:09.740Z,29.85
2023-01-19T20:09:36.476Z,27.40
2023-01-19T20:12:03.111Z,28.00
2023-01-19T20:14:29.726Z,31.85
2023-01-19T20:16:56.262Z,27.08
2023-01-19T20:19:22.837Z,30.38
2023-01-19T20:21:54.682Z,32.30
2023-01-19T20:24:21.284Z,32.30
2023-01-19T20:26:52.307Z,31.15
2023-01-19T20:29:19.831Z,27.13
2023-01-19T20:31:53.107Z,26.73
2023-01-19T20:34:22.272Z,28.95
2023-01-19T20:36:50.296Z,28.25
2023-01-19T20:39:18.486Z,27.27
2023-01-19T20:41:45.577Z,32.45
2023-01-19T20:44:15.323Z,28.55
2023-01-19T20:46:42.346Z,33.03
2023-01-19T20:49:09.158Z,35.28
2023-01-19T20:51:37.349Z,35.80
2023-01-19T20:54:04.079Z,35.40
2023-01-19T20:56:30.557Z,32.25
2023-01-19T20:58:58.688Z,31.13
2023-01-19T21:01:26.273Z,34.20
2023-01-19T21:03:52.960Z,30.80
2023-01-19T21:06:21.493Z,36.83
2023-01-19T21:08:51.580Z,34.47
2023-01-19T21:11:20.904Z,37.40
2023-01-19T21:13:48.543Z,36.83
2023-01-19T21:16:15.737Z,39.63
2023-01-19T21:18:42.780Z,37.38
2023-01-19T21:21:20.853Z,39.00
2023-01-19T21:23:59.940Z,37.38
2023-01-19T21:26:26.803Z,37.65
2023-01-19T21:28:53.494Z,38.47
2023-01-19T21:31:22.519Z,41.20
2023-01-19T21:33:53.403Z,46.33
2023-01-19T21:36:21.142Z,38.35
2023-01-19T21:38:48.044Z,32.72
2023-01-19T21:41:16.253Z,33.05
2023-01-19T21:43:43.182Z,40.80
2023-01-19T21:46:29.212Z,42.42
2023-01-19T21:48:57.346Z,45.88
2023-01-19T21:51:23.971Z,93.47
2023-01-19T21:53:52.154Z,58.75
2023-01-19T21:56:18.818Z,42.65
2023-01-19T21:58:47.146Z,42.13
2023-01-19T22:01:14.003Z,41.97
2023-01-19T22:03:41.274Z,38.53
2023-01-19T22:06:11.260Z,46.95
2023-01-19T22:08:38.503Z,44.95
2023-01-19T22:11:11.109Z,45.25
2023-01-19T22:16:10.385Z,38.45
2023-01-19T22:18:38.734Z,39.80
2023-01-19T22:21:14.678Z,41.45
2023-01-19T22:23:42.155Z,42.88
2023-01-19T22:26:10.726Z,41.88
2023-01-19T22:28:38.004Z,47.42
2023-01-19T22:31:06.947Z,39.40
2023-01-19T22:33:33.851Z,36.97
2023-01-19T22:36:31.017Z,40.17
2023-01-19T22:38:59.907Z,34.30
2023-01-19T22:41:31.896Z,40.95
2023-01-19T22:44:04.866Z,45.70
2023-01-19T22:46:33.760Z,40.05
2023-01-19T22:49:00.478Z,38.97
2023-01-19T22:51:29.629Z,45.08
2023-01-19T22:53:56.684Z,36.75
2023-01-19T22:56:28.381Z,46.58
2023-01-19T22:58:55.302Z,40.33
2023-01-19T23:01:37.020Z,40.72
2023-01-19T23:04:05.598Z,46.15
2023-01-19T23:06:35.404Z,57.85
2023-01-19T23:09:06.660Z,65.88
2023-01-19T23:11:36.787Z,45.45
2023-01-19T23:14:04.558Z,41.83
2023-01-19T23:16:31.055Z,41.30
2023-01-19T23:18:58.486Z,39.47
2023-01-19T23:21:29.931Z,41.40
2023-01-19T23:24:01.527Z,46.20
2023-01-19T23:26:30.741Z,41.30
2023-01-19T23:28:59.709Z,43.60
2023-01-19T23:31:32.129Z,36.42
2023-01-19T23:34:01.445Z,35.88
2023-01-19T23:36:30.786Z,36.75
2023-01-19T23:38:59.509Z,38.42
2023-01-19T23:41:30.653Z,45.22
2023-01-19T23:43:57.338Z,50.05
2023-01-19T23:46:24.555Z,46.78
2023-01-19T23:48:51.036Z,46.25
2023-01-19T23:51:21.241Z,47.22
2023-01-19T23:53:48.229Z,49.08
2023-01-19T23:56:17.927Z,45.55
2023-01-19T23:58:45.855Z,39.65
